Time;durP1;ratioP1;P1;durP2;ratioP2;P2;SDS_P1;SDS_P2;PMS_P1;PMS_P2;Temp;Humidity;BMP_temperature;BMP_pressure;BME280_temperature;BME280_humidity;BME280_pressure;Samples;Min_cycle;Max_cycle;Signal;HPM_P1;HPM_P2
2022/10/29 00:00:41;;;;;;;13.13;7.47;;;17.50;69.60;;;;;;5082033;28;21241;-89
2022/10/29 00:03:08;;;;;;;11.20;7.83;;;17.80;68.70;;;;;;5096250;27;20527;-87
2022/10/29 00:05:35;;;;;;;10.30;7.83;;;18.10;68.00;;;;;;5097164;28;20451;-89
2022/10/29 00:08:03;;;;;;;12.17;7.73;;;18.20;67.10;;;;;;5083185;27;20466;-88
2022/10/29 00:10:30;;;;;;;26.20;14.20;;;18.40;66.50;;;;;;5077118;28;21410;-89
2022/10/29 00:13:01;;;;;;;30.10;15.47;;;18.40;65.70;;;;;;5085916;27;20454;-88
2022/10/29 00:15:29;;;;;;;35.53;9.13;;;18.50;65.40;;;;;;5094583;27;20456;-87
2022/10/29 00:17:56;;;;;;;20.00;8.07;;;18.40;65.40;;;;;;5072803;27;20494;-89
2022/10/29 00:20:23;;;;;;;18.83;10.03;;;18.40;65.70;;;;;;5086060;27;20440;-88
2022/10/29 00:22:53;;;;;;;26.37;11.93;;;18.40;66.10;;;;;;5093713;27;21014;-89
2022/10/29 00:25:20;;;;;;;24.93;10.17;;;18.40;66.10;;;;;;5074644;27;20450;-88
2022/10/29 00:27:47;;;;;;;12.63;8.07;;;18.50;65.60;;;;;;5096990;27;20467;-89
2022/10/29 00:30:16;;;;;;;12.70;9.13;;;18.50;65.20;;;;;;5096299;28;20452;-89
2022/10/29 00:32:43;;;;;;;17.20;9.37;;;18.50;64.90;;;;;;5083202;28;20545;-87
2022/10/29 00:35:10;;;;;;;43.97;12.50;;;18.60;64.80;;;;;;5095939;27;20454;-88
2022/10/29 00:37:37;;;;;;;22.23;10.03;;;18.40;64.70;;;;;;5061202;28;20474;-88
2022/10/29 00:40:05;;;;;;;27.73;10.07;;;18.30;65.40;;;;;;5103563;27;20481;-88
2022/10/29 00:42:32;;;;;;;18.43;9.50;;;18.30;65.30;;;;;;5084100;27;20449;-88
2022/10/29 00:44:59;;;;;;;27.83;8.63;;;18.40;65.20;;;;;;5092227;27;20456;-88
2022/10/29 00:47:31;;;;;;;16.20;8.77;;;18.50;65.20;;;;;;5102974;27;21061;-88
2022/10/29 00:50:01;;;;;;;29.47;8.70;;;18.50;65.30;;;;;;5099342;27;20955;-89
2022/10/29 00:52:31;;;;;;;23.10;9.60;;;18.50;65.40;;;;;;5086388;27;20447;-89
2022/10/29 00:55:00;;;;;;;17.27;8.73;;;18.50;65.50;;;;;;5094917;27;20438;-88
2022/10/29 00:57:33;;;;;;;9.93;7.50;;;18.50;65.20;;;;;;5095799;27;20473;-89
2022/10/29 01:00:00;;;;;;;41.60;9.17;;;18.50;65.20;;;;;;5084388;28;20455;-88
2022/10/29 01:02:30;;;;;;;32.10;8.30;;;18.50;65.20;;;;;;5092953;27;20459;-88
2022/10/29 01:04:57;;;;;;;42.13;8.97;;;18.30;65.00;;;;;;5092912;27;20446;-89
2022/10/29 01:07:24;;;;;;;51.23;9.23;;;18.20;65.50;;;;;;5097802;27;20821;-89
2022/10/29 01:09:51;;;;;;;9.50;7.20;;;18.10;66.00;;;;;;5091950;27;20463;-88
2022/10/29 01:12:52;;;;;;;18.50;7.47;;;18.20;66.30;;;;;;5079546;28;20440;-89
2022/10/29 01:15:26;;;;;;;51.80;8.30;;;18.30;65.50;;;;;;5094311;27;20447;-87
2022/10/29 01:18:06;;;;;;;14.37;7.70;;;18.10;65.80;;;;;;5077346;28;20471;-88
2022/10/29 01:21:05;;;;;;;23.70;7.27;;;18.10;66.60;;;;;;5077953;28;20848;-89
2022/10/29 01:24:09;;;;;;;101.20;10.23;;;18.20;65.60;;;;;;5094482;27;20533;-89
2022/10/29 01:27:14;;;;;;;28.83;6.63;;;18.20;65.00;;;;;;5064180;28;21034;-88
2022/10/29 01:29:54;;;;;;;19.67;7.40;;;18.20;64.50;;;;;;5095357;27;20449;-89
2022/10/29 01:32:30;;;;;;;10.80;6.60;;;18.00;65.30;;;;;;5070010;28;20455;-88
2022/10/29 01:35:01;;;;;;;18.67;6.90;;;18.00;65.20;;;;;;5096536;27;20544;-88
2022/10/29 01:37:32;;;;;;;15.80;6.17;;;18.10;65.40;;;;;;5094450;27;20470;-89
2022/10/29 01:40:05;;;;;;;28.23;7.40;;;18.10;65.00;;;;;;5095380;27;20488;-89
2022/10/29 01:42:37;;;;;;;21.40;6.90;;;18.10;64.40;;;;;;5095917;27;20455;-88
2022/10/29 01:45:11;;;;;;;32.00;10.20;;;17.70;64.80;;;;;;5085271;28;20469;-90
2022/10/29 01:47:44;;;;;;;17.83;6.43;;;17.40;66.40;;;;;;5068503;28;21045;-89
2022/10/29 01:50:16;;;;;;;29.80;7.10;;;17.50;66.20;;;;;;5095485;27;20973;-89
2022/10/29 01:52:44;;;;;;;42.03;7.77;;;17.60;65.60;;;;;;5081352;28;20458;-88
2022/10/29 01:55:15;;;;;;;34.40;7.60;;;17.50;65.30;;;;;;5093702;27;20455;-89
2022/10/29 01:57:42;;;;;;;11.03;6.80;;;17.40;65.90;;;;;;5093420;27;20466;-88
2022/10/29 02:00:12;;;;;;;9.17;6.93;;;17.50;66.00;;;;;;5081086;28;20835;-89
2022/10/29 02:02:50;;;;;;;10.10;5.40;;;17.60;65.80;;;;;;5093966;27;20448;-90
2022/10/29 02:05:28;;;;;;;14.17;6.00;;;17.70;65.50;;;;;;5077898;28;20454;-89
2022/10/29 02:08:00;;;;;;;7.90;5.87;;;17.80;65.20;;;;;;5056999;28;20474;-89
2022/10/29 02:10:33;;;;;;;46.00;8.03;;;17.90;65.00;;;;;;5092501;27;20454;-89
2022/10/29 02:13:00;;;;;;;27.47;7.67;;;17.90;64.80;;;;;;5076545;28;20451;-89
2022/10/29 02:15:33;;;;;;;40.80;7.40;;;18.00;65.10;;;;;;5080528;28;20489;-89
2022/10/29 02:18:03;;;;;;;18.10;6.13;;;18.00;65.10;;;;;;5093942;27;20500;-88
2022/10/29 02:20:33;;;;;;;31.53;7.13;;;17.90;64.60;;;;;;5060188;28;20447;-89
2022/10/29 02:23:00;;;;;;;62.50;8.37;;;17.90;64.50;;;;;;5077513;28;20431;-90
2022/10/29 02:25:27;;;;;;;14.33;5.70;;;17.50;65.30;;;;;;5102495;27;20477;-89
2022/10/29 02:27:56;;;;;;;45.27;7.03;;;17.50;66.00;;;;;;5082402;28;20463;-90
2022/10/29 02:30:23;;;;;;;27.93;6.80;;;17.50;65.90;;;;;;5077341;28;20444;-90
2022/10/29 02:32:50;;;;;;;27.00;6.77;;;17.50;65.90;;;;;;5064830;28;21112;-88
2022/10/29 02:35:19;;;;;;;30.23;7.90;;;17.50;65.80;;;;;;5091348;27;20842;-89
2022/10/29 02:37:46;;;;;;;56.80;7.80;;;17.30;65.80;;;;;;5097968;27;20880;-89
2022/10/29 02:40:13;;;;;;;70.60;9.20;;;17.30;65.40;;;;;;5076515;28;20523;-89
2022/10/29 02:42:40;;;;;;;101.93;10.60;;;17.20;65.30;;;;;;5075882;28;20468;-89
2022/10/29 02:45:08;;;;;;;192.07;12.10;;;16.80;66.60;;;;;;5083933;27;20481;-90
2022/10/29 02:47:35;;;;;;;30.73;7.30;;;16.50;67.70;;;;;;5078389;28;20474;-88
2022/10/29 02:50:02;;;;;;;34.40;6.87;;;16.20;69.20;;;;;;5076691;28;20451;-89
2022/10/29 02:52:30;;;;;;;42.93;7.27;;;16.60;68.60;;;;;;5096799;27;20968;-88
2022/10/29 02:54:57;;;;;;;39.07;7.00;;;16.90;67.40;;;;;;5093245;27;20451;-88
2022/10/29 02:57:24;;;;;;;130.50;11.20;;;16.80;67.20;;;;;;5093913;27;20463;-89
2022/10/29 02:59:51;;;;;;;54.63;8.10;;;17.00;66.90;;;;;;5091686;27;20472;-89
2022/10/29 03:02:18;;;;;;;51.87;7.17;;;16.60;67.00;;;;;;5094835;27;20459;-87
2022/10/29 03:04:45;;;;;;;15.73;5.77;;;16.20;68.80;;;;;;5075664;28;20543;-88
2022/10/29 03:07:12;;;;;;;21.53;5.90;;;16.30;68.80;;;;;;5093905;27;20457;-88
2022/10/29 03:09:40;;;;;;;40.17;7.00;;;16.40;68.30;;;;;;5092387;27;20542;-88
2022/10/29 03:12:08;;;;;;;8.20;5.23;;;16.60;67.00;;;;;;5092662;27;20446;-88
2022/10/29 03:14:35;;;;;;;10.23;5.20;;;16.60;67.40;;;;;;5058958;28;20447;-88
2022/10/29 03:17:02;;;;;;;7.93;5.07;;;16.80;67.00;;;;;;5058942;28;20471;-88
2022/10/29 03:19:29;;;;;;;100.30;8.83;;;17.00;66.20;;;;;;5080824;28;21332;-89
2022/10/29 03:21:56;;;;;;;30.07;7.00;;;17.00;66.20;;;;;;5076005;28;20462;-89
2022/10/29 03:24:23;;;;;;;52.73;9.27;;;17.00;66.50;;;;;;5089613;27;20448;-88
2022/10/29 03:26:51;;;;;;;23.80;6.53;;;17.20;66.40;;;;;;5077019;28;20478;-90
2022/10/29 03:29:18;;;;;;;30.13;6.80;;;17.30;66.00;;;;;;5107281;27;20493;-89
2022/10/29 03:31:45;;;;;;;40.27;8.07;;;17.40;65.80;;;;;;5063748;28;20557;-89
2022/10/29 03:34:13;;;;;;;71.50;8.37;;;17.40;65.70;;;;;;5061200;28;20459;-89
2022/10/29 03:36:40;;;;;;;59.97;7.73;;;17.40;65.60;;;;;;5092130;28;21031;-88
2022/10/29 03:39:07;;;;;;;33.30;6.93;;;17.40;64.80;;;;;;5094771;28;20471;-89
2022/10/29 03:41:34;;;;;;;118.20;9.17;;;16.80;66.10;;;;;;5076472;28;20566;-89
2022/10/29 03:44:02;;;;;;;91.37;10.27;;;16.40;67.30;;;;;;5074308;28;20970;-89
2022/10/29 03:46:29;;;;;;;51.33;7.73;;;16.50;67.70;;;;;;5082525;28;20946;-88
2022/10/29 03:48:56;;;;;;;23.73;6.63;;;16.70;67.20;;;;;;5057015;28;20824;-90
2022/10/29 03:51:23;;;;;;;39.17;7.83;;;17.00;66.90;;;;;;5076770;28;20438;-90
2022/10/29 03:53:50;;;;;;;49.13;8.20;;;17.10;66.40;;;;;;5091080;28;20438;-89
2022/10/29 03:56:17;;;;;;;133.27;11.00;;;17.20;65.70;;;;;;5076425;28;20475;-89
2022/10/29 03:58:44;;;;;;;65.93;8.70;;;17.10;65.40;;;;;;5090265;28;20464;-89
2022/10/29 04:01:13;;;;;;;31.47;6.93;;;16.60;66.60;;;;;;5100654;28;20449;-88
2022/10/29 04:03:41;;;;;;;105.50;9.57;;;16.40;68.20;;;;;;5099144;28;20795;-89
2022/10/29 04:06:12;;;;;;;67.23;8.67;;;16.30;67.90;;;;;;5076554;28;20451;-89
2022/10/29 04:08:40;;;;;;;22.83;6.37;;;16.40;68.50;;;;;;5076971;28;20535;-88
2022/10/29 04:11:07;;;;;;;14.90;5.83;;;16.70;68.00;;;;;;5092481;28;20447;-89
2022/10/29 04:13:34;;;;;;;14.70;6.03;;;16.80;67.30;;;;;;5074613;28;20462;-89
2022/10/29 04:16:01;;;;;;;30.83;7.47;;;17.00;66.70;;;;;;5072296;28;20435;-87
2022/10/29 04:18:30;;;;;;;15.43;6.93;;;17.10;66.00;;;;;;5094393;28;20452;-89
2022/10/29 04:21:01;;;;;;;91.00;9.53;;;17.20;66.00;;;;;;5098803;28;20457;-89
2022/10/29 04:23:28;;;;;;;15.60;6.10;;;17.30;65.90;;;;;;5082664;28;20439;-89
2022/10/29 04:25:56;;;;;;;21.43;6.67;;;17.30;65.50;;;;;;5091848;28;20443;-89
2022/10/29 04:28:23;;;;;;;156.93;13.07;;;17.30;65.40;;;;;;5077205;28;20439;-88
2022/10/29 04:30:50;;;;;;;183.87;12.23;;;17.10;65.20;;;;;;5100890;27;20447;-90
2022/10/29 04:33:18;;;;;;;121.47;10.50;;;16.70;65.60;;;;;;5093322;28;20503;-89
2022/10/29 04:35:51;;;;;;;98.47;11.83;;;16.30;67.80;;;;;;5064451;28;20434;-89
2022/10/29 04:38:19;;;;;;;93.80;11.97;;;15.80;68.60;;;;;;5088312;28;20475;-89
2022/10/29 04:40:46;;;;;;;36.33;7.27;;;15.90;69.30;;;;;;5083506;28;20478;-89
2022/10/29 04:43:13;;;;;;;25.03;5.73;;;16.10;68.60;;;;;;5096458;27;20466;-89
2022/10/29 04:45:40;;;;;;;31.37;6.30;;;16.30;68.10;;;;;;5093586;28;20478;-89
2022/10/29 04:48:07;;;;;;;136.70;12.97;;;16.50;67.50;;;;;;5087646;27;20493;-89
2022/10/29 04:50:37;;;;;;;94.03;11.60;;;16.10;67.30;;;;;;5076183;27;20825;-89
2022/10/29 04:53:07;;;;;;;129.50;12.73;;;16.00;68.50;;;;;;5082507;27;20443;-89
2022/10/29 04:55:37;;;;;;;57.10;8.77;;;15.80;69.30;;;;;;5075625;27;20559;-90
2022/10/29 04:58:04;;;;;;;82.67;8.37;;;16.20;69.00;;;;;;5093137;27;20484;-87
2022/10/29 05:00:31;;;;;;;20.53;7.00;;;15.90;67.90;;;;;;5075074;28;20472;-89
2022/10/29 05:02:58;;;;;;;183.00;14.67;;;15.80;69.00;;;;;;5101767;27;20459;-89
2022/10/29 05:05:26;;;;;;;11.13;6.67;;;15.90;68.30;;;;;;5079282;28;20559;-88
2022/10/29 05:07:57;;;;;;;27.37;8.60;;;16.00;68.90;;;;;;5103531;27;20561;-89
2022/10/29 05:10:29;;;;;;;76.00;10.10;;;16.20;68.30;;;;;;5076695;28;20441;-88
2022/10/29 05:12:58;;;;;;;51.37;8.70;;;16.40;67.50;;;;;;5083893;28;20968;-88
2022/10/29 05:15:25;;;;;;;191.80;19.30;;;16.50;67.00;;;;;;5096643;28;20455;-88
2022/10/29 05:17:51;;;;;;;73.93;11.70;;;16.40;66.60;;;;;;5085815;28;20551;-89
2022/10/29 05:20:18;;;;;;;166.70;14.90;;;16.30;66.60;;;;;;5094025;27;20971;-89
2022/10/29 05:22:45;;;;;;;94.03;11.87;;;16.10;67.00;;;;;;5094083;27;20443;-89
2022/10/29 05:25:13;;;;;;;37.50;10.37;;;15.80;68.10;;;;;;5079718;27;20446;-89
2022/10/29 05:27:41;;;;;;;90.07;9.70;;;16.00;68.10;;;;;;5098784;27;20479;-88
2022/10/29 05:30:09;;;;;;;80.23;10.17;;;16.10;67.00;;;;;;5067700;28;21171;-89
2022/10/29 05:32:36;;;;;;;72.27;8.73;;;15.70;68.20;;;;;;5076487;28;20443;-88
2022/10/29 05:35:03;;;;;;;29.90;7.00;;;15.50;69.20;;;;;;5076420;28;20880;-88
2022/10/29 05:37:29;;;;;;;25.97;6.93;;;15.80;68.90;;;;;;5061200;28;20455;-89
2022/10/29 05:39:57;;;;;;;96.30;12.20;;;16.00;68.30;;;;;;5093160;27;20486;-88
2022/10/29 05:42:24;;;;;;;88.37;11.93;;;16.20;67.80;;;;;;5091219;28;20443;-89
2022/10/29 05:44:52;;;;;;;48.43;9.30;;;16.00;68.30;;;;;;5096251;27;20443;-89
2022/10/29 05:47:19;;;;;;;91.87;10.00;;;15.90;68.50;;;;;;5094439;27;21037;-89
2022/10/29 05:49:46;;;;;;;185.27;16.27;;;16.20;67.90;;;;;;5065081;27;20447;-89
2022/10/29 05:52:13;;;;;;;80.57;9.53;;;16.30;66.80;;;;;;5086239;28;21184;-90
2022/10/29 05:54:40;;;;;;;53.47;10.97;;;16.00;68.40;;;;;;5092976;27;20457;-89
2022/10/29 05:57:07;;;;;;;41.60;8.90;;;16.00;68.30;;;;;;5091376;27;20475;-90
2022/10/29 05:59:33;;;;;;;29.60;8.93;;;16.20;67.90;;;;;;5085669;28;20475;-88
2022/10/29 06:02:02;;;;;;;42.30;8.60;;;16.30;67.70;;;;;;5089948;28;20454;-88
2022/10/29 06:04:29;;;;;;;40.00;8.77;;;16.40;67.60;;;;;;5099331;27;20442;-89
2022/10/29 06:06:56;;;;;;;41.13;10.63;;;16.50;67.30;;;;;;5102872;27;20479;-90
2022/10/29 06:09:23;;;;;;;29.70;8.40;;;16.30;67.50;;;;;;5094797;27;20945;-89
2022/10/29 06:11:50;;;;;;;16.23;7.30;;;16.30;67.50;;;;;;5082410;28;20447;-89
2022/10/29 06:14:17;;;;;;;43.23;8.60;;;16.40;67.60;;;;;;5090489;28;20447;-88
2022/10/29 06:16:44;;;;;;;20.37;6.97;;;16.50;67.40;;;;;;5092774;27;20557;-88
2022/10/29 06:19:12;;;;;;;29.13;8.90;;;16.50;66.90;;;;;;5096369;27;20496;-89
2022/10/29 06:21:39;;;;;;;41.37;8.20;;;16.50;67.00;;;;;;5092313;27;20439;-89
2022/10/29 06:24:07;;;;;;;25.03;8.40;;;16.30;67.10;;;;;;5086198;27;20490;-88
2022/10/29 06:26:34;;;;;;;27.67;8.50;;;16.50;67.10;;;;;;5095567;28;20485;-90
2022/10/29 06:29:01;;;;;;;54.70;8.00;;;16.60;66.90;;;;;;5096736;28;20450;-88
2022/10/29 06:31:28;;;;;;;65.27;10.87;;;16.70;66.60;;;;;;5092406;27;20959;-89
2022/10/29 06:33:55;;;;;;;9.47;6.33;;;16.50;66.50;;;;;;5064457;28;20467;-88
2022/10/29 06:36:24;;;;;;;22.40;6.40;;;16.60;66.80;;;;;;5059828;28;20459;-88
2022/10/29 06:38:51;;;;;;;27.50;7.50;;;16.70;66.50;;;;;;5075654;28;20448;-88
2022/10/29 06:41:23;;;;;;;33.93;7.70;;;16.40;66.70;;;;;;5096702;27;20471;-89
2022/10/29 06:43:51;;;;;;;20.40;6.70;;;16.50;66.80;;;;;;5059610;27;20496;-88
2022/10/29 06:46:18;;;;;;;10.40;7.13;;;16.60;66.70;;;;;;5077154;27;20447;-89
2022/10/29 06:48:44;;;;;;;8.53;7.60;;;16.60;66.50;;;;;;5081361;28;21909;-89
2022/10/29 06:51:11;;;;;;;8.83;7.40;;;16.70;66.30;;;;;;5075446;28;20443;-89
2022/10/29 06:53:40;;;;;;;12.23;7.87;;;16.70;66.20;;;;;;5075657;28;20451;-89
2022/10/29 06:56:07;;;;;;;23.77;9.90;;;16.70;66.40;;;;;;5093093;27;20439;-88
2022/10/29 06:58:34;;;;;;;20.10;10.47;;;16.70;66.40;;;;;;5067596;28;20483;-89
2022/10/29 07:01:01;;;;;;;14.80;10.00;;;16.60;66.50;;;;;;5064559;27;20477;-89
2022/10/29 07:03:28;;;;;;;10.37;8.30;;;16.60;66.50;;;;;;5082967;28;20438;-88
2022/10/29 07:05:56;;;;;;;20.33;7.73;;;16.70;66.50;;;;;;5079030;28;20524;-88
2022/10/29 07:08:23;;;;;;;12.50;7.23;;;16.60;67.00;;;;;;5084877;28;20469;-88
2022/10/29 07:10:52;;;;;;;10.53;6.80;;;16.70;66.30;;;;;;5053268;28;20527;-90
2022/10/29 07:13:19;;;;;;;10.77;7.67;;;16.70;66.30;;;;;;5065041;28;21116;-88
2022/10/29 07:15:46;;;;;;;9.67;7.43;;;16.70;66.30;;;;;;5083229;28;20553;-89
2022/10/29 07:18:14;;;;;;;14.47;9.77;;;16.60;66.50;;;;;;5085162;27;20506;-88
2022/10/29 07:20:43;;;;;;;11.10;9.00;;;16.70;66.30;;;;;;5050564;28;20564;-90
2022/10/29 07:23:11;;;;;;;7.80;7.00;;;16.70;66.40;;;;;;5054532;28;20451;-90
2022/10/29 07:25:40;;;;;;;13.87;6.97;;;16.70;66.50;;;;;;5055269;28;20536;-88
2022/10/29 07:28:11;;;;;;;7.13;5.87;;;16.60;66.70;;;;;;5045841;28;20543;-88
2022/10/29 07:30:39;;;;;;;13.13;6.13;;;16.70;66.50;;;;;;5076442;28;20525;-88
2022/10/29 07:33:06;;;;;;;6.93;5.47;;;16.50;66.70;;;;;;5093653;28;20805;-87
2022/10/29 07:35:33;;;;;;;6.57;5.40;;;16.60;66.70;;;;;;5072565;28;20449;-87
2022/10/29 07:38:01;;;;;;;6.63;5.60;;;16.80;66.20;;;;;;5057140;28;20468;-88
2022/10/29 07:40:28;;;;;;;9.00;6.27;;;16.80;66.30;;;;;;5058596;28;20463;-88
2022/10/29 07:42:55;;;;;;;10.90;7.93;;;16.90;66.00;;;;;;5073554;28;20559;-86
2022/10/29 07:45:24;;;;;;;7.63;6.50;;;17.00;65.50;;;;;;5071894;28;20455;-88
2022/10/29 07:47:58;;;;;;;8.23;6.90;;;17.10;65.50;;;;;;5091793;28;20853;-89
2022/10/29 07:50:25;;;;;;;11.83;7.20;;;17.00;65.80;;;;;;5072595;28;20438;-87
2022/10/29 07:52:52;;;;;;;7.30;6.50;;;17.00;65.90;;;;;;5093507;28;20457;-89
2022/10/29 07:55:20;;;;;;;9.00;6.73;;;16.80;66.60;;;;;;5058567;28;20443;-88
2022/10/29 07:57:47;;;;;;;8.00;7.20;;;16.60;66.80;;;;;;5047844;28;20455;-89
2022/10/29 08:00:14;;;;;;;8.90;7.30;;;16.50;67.60;;;;;;5092752;28;20472;-89
2022/10/29 08:02:42;;;;;;;9.10;7.67;;;16.70;67.30;;;;;;5064872;28;20432;-88
2022/10/29 08:05:09;;;;;;;13.93;7.47;;;16.90;66.70;;;;;;5076425;27;20446;-87
2022/10/29 08:07:36;;;;;;;9.23;6.83;;;17.00;66.40;;;;;;5077379;27;21021;-90
2022/10/29 08:10:04;;;;;;;7.50;6.23;;;16.90;66.30;;;;;;5053554;28;20444;-89
2022/10/29 08:12:31;;;;;;;7.57;6.80;;;16.80;66.50;;;;;;5059630;28;20526;-88
2022/10/29 08:14:58;;;;;;;7.47;6.73;;;16.90;66.80;;;;;;5081623;28;20451;-89
2022/10/29 08:17:24;;;;;;;9.67;6.87;;;16.90;66.90;;;;;;5070739;28;20483;-89
2022/10/29 08:19:53;;;;;;;7.83;6.77;;;17.10;66.50;;;;;;5083082;28;20455;-88
2022/10/29 08:22:20;;;;;;;13.10;7.33;;;17.30;66.00;;;;;;5076089;28;20447;-87
2022/10/29 08:24:47;;;;;;;8.20;7.40;;;17.40;65.60;;;;;;5099513;27;20480;-89
2022/10/29 08:27:14;;;;;;;13.70;7.30;;;17.30;65.60;;;;;;5078802;28;20584;-89
2022/10/29 08:29:41;;;;;;;8.87;7.20;;;17.10;66.30;;;;;;5076852;28;20801;-89
2022/10/29 08:32:08;;;;;;;23.07;8.70;;;17.00;66.60;;;;;;5077868;28;20522;-89
2022/10/29 08:34:35;;;;;;;8.63;7.27;;;17.10;66.70;;;;;;5094571;28;20536;-88
2022/10/29 08:37:03;;;;;;;8.77;7.60;;;17.20;66.50;;;;;;5050411;28;20486;-88
2022/10/29 08:39:33;;;;;;;16.20;8.13;;;17.20;66.10;;;;;;5075268;28;20436;-88
2022/10/29 08:42:10;;;;;;;11.50;7.80;;;17.30;66.00;;;;;;5064281;28;20450;-89
2022/10/29 08:44:56;;;;;;;10.07;8.93;;;17.20;66.40;;;;;;5076175;28;21162;-89
2022/10/29 08:47:24;;;;;;;9.20;7.07;;;17.30;66.30;;;;;;5094158;27;20974;-88
2022/10/29 08:50:02;;;;;;;9.50;7.23;;;17.20;66.90;;;;;;5059072;28;20438;-89
2022/10/29 08:52:35;;;;;;;9.87;7.60;;;17.20;67.20;;;;;;5074078;28;21028;-88
2022/10/29 08:55:08;;;;;;;9.40;7.40;;;17.30;67.40;;;;;;5067136;27;20450;-89
2022/10/29 08:57:42;;;;;;;8.83;5.57;;;17.60;66.80;;;;;;5064402;28;20546;-88
2022/10/29 09:00:15;;;;;;;7.23;6.17;;;17.50;66.60;;;;;;5077856;27;20473;-89
2022/10/29 09:02:42;;;;;;;5.43;4.93;;;17.40;66.90;;;;;;5095010;27;20502;-88
2022/10/29 09:05:13;;;;;;;7.13;5.83;;;17.50;66.60;;;;;;5083563;28;21229;-88
2022/10/29 09:07:58;;;;;;;7.53;6.40;;;17.60;66.60;;;;;;5095398;27;20470;-89
2022/10/29 09:10:31;;;;;;;5.10;4.70;;;17.70;66.50;;;;;;5095053;27;20431;-87
2022/10/29 09:13:28;;;;;;;5.60;4.67;;;17.60;66.10;;;;;;5094435;27;20452;-89
2022/10/29 09:16:13;;;;;;;6.13;4.77;;;17.60;67.00;;;;;;5070829;28;20932;-90
2022/10/29 09:19:01;;;;;;;4.97;4.57;;;17.40;67.30;;;;;;5060040;28;20466;-89
2022/10/29 09:21:37;;;;;;;6.63;4.70;;;17.30;68.20;;;;;;5048599;27;20458;-89
2022/10/29 09:24:14;;;;;;;4.57;4.10;;;17.40;68.20;;;;;;5070702;28;20453;-90
2022/10/29 09:26:52;;;;;;;5.27;4.30;;;17.60;67.50;;;;;;5048032;28;21042;-88
2022/10/29 09:29:55;;;;;;;5.27;4.77;;;17.60;67.00;;;;;;5062598;28;20446;-86
2022/10/29 09:32:25;;;;;;;5.60;5.10;;;17.70;67.20;;;;;;5066859;27;20447;-89
2022/10/29 09:34:56;;;;;;;5.33;4.83;;;17.70;66.90;;;;;;5078067;28;20533;-88
2022/10/29 09:37:29;;;;;;;5.73;5.07;;;17.60;67.50;;;;;;5096065;28;20470;-89
2022/10/29 09:39:59;;;;;;;5.40;4.97;;;17.70;67.50;;;;;;5066557;28;20451;-88
2022/10/29 09:42:32;;;;;;;6.27;5.17;;;17.90;67.30;;;;;;5072780;28;20471;-88
2022/10/29 09:45:02;;;;;;;6.77;5.70;;;18.10;67.00;;;;;;5075554;28;20488;-89
2022/10/29 09:47:42;;;;;;;5.80;5.30;;;18.40;66.50;;;;;;5075479;28;20463;-90
2022/10/29 09:50:23;;;;;;;7.83;6.27;;;18.20;66.00;;;;;;5094467;27;20439;-89
2022/10/29 09:52:50;;;;;;;7.53;6.83;;;18.10;66.70;;;;;;5070758;27;20430;-89
2022/10/29 09:55:23;;;;;;;6.17;5.57;;;18.40;66.50;;;;;;5061519;27;20542;-89
2022/10/29 09:57:51;;;;;;;7.20;6.20;;;18.40;66.60;;;;;;5078158;27;20521;-89
2022/10/29 10:00:21;;;;;;;9.03;6.30;;;18.50;66.70;;;;;;5062510;27;20938;-89
2022/10/29 10:02:54;;;;;;;6.17;5.70;;;18.60;66.10;;;;;;5093166;27;20970;-88
2022/10/29 10:05:25;;;;;;;8.00;7.00;;;18.60;65.80;;;;;;5065506;27;20455;-88
2022/10/29 10:08:06;;;;;;;7.03;6.40;;;18.70;65.70;;;;;;5094672;28;20547;-89
2022/10/29 10:10:36;;;;;;;13.07;7.20;;;18.90;65.60;;;;;;5082816;28;20453;-88
2022/10/29 10:13:06;;;;;;;8.30;7.30;;;18.90;65.60;;;;;;5066547;28;20513;-89
2022/10/29 10:15:34;;;;;;;9.53;7.37;;;19.10;65.80;;;;;;5055798;28;20857;-89
2022/10/29 10:18:02;;;;;;;9.40;8.47;;;19.10;65.50;;;;;;5067123;28;20463;-89
2022/10/29 10:20:34;;;;;;;26.30;13.60;;;19.20;65.80;;;;;;5078386;28;20453;-89
2022/10/29 10:23:01;;;;;;;16.67;11.30;;;19.40;65.50;;;;;;5049992;28;20471;-90
2022/10/29 10:25:36;;;;;;;15.67;11.50;;;19.30;65.30;;;;;;5062437;27;20458;-90
2022/10/29 10:28:05;;;;;;;13.63;9.30;;;19.40;65.50;;;;;;5082869;28;20468;-88
2022/10/29 10:30:32;;;;;;;10.53;7.60;;;19.50;65.30;;;;;;5049191;27;20776;-89
2022/10/29 10:33:12;;;;;;;13.00;8.40;;;19.60;65.30;;;;;;5077214;28;20817;-89
2022/10/29 10:35:39;;;;;;;14.83;9.33;;;19.50;65.50;;;;;;5057103;28;20839;-89
2022/10/29 10:38:10;;;;;;;9.03;7.97;;;19.50;65.90;;;;;;5049400;28;20535;-89
2022/10/29 10:40:39;;;;;;;8.60;7.80;;;19.40;66.30;;;;;;5043018;27;20451;-89
2022/10/29 10:43:07;;;;;;;15.53;9.17;;;19.40;65.90;;;;;;5083925;27;20475;-89
2022/10/29 10:45:38;;;;;;;13.53;8.43;;;19.60;66.00;;;;;;5061073;28;20458;-89
2022/10/29 10:48:09;;;;;;;11.43;8.07;;;19.70;66.00;;;;;;5081566;28;20463;-89
2022/10/29 10:50:36;;;;;;;10.40;7.70;;;19.70;65.70;;;;;;5074108;28;20447;-88
2022/10/29 10:53:14;;;;;;;14.27;8.33;;;19.50;66.30;;;;;;5091844;28;20814;-88
2022/10/29 10:55:47;;;;;;;10.03;8.93;;;19.70;66.70;;;;;;5073845;28;20943;-89
2022/10/29 10:58:20;;;;;;;10.40;8.37;;;19.80;66.40;;;;;;5074212;28;21008;-88
2022/10/29 11:00:54;;;;;;;10.20;8.37;;;19.90;66.30;;;;;;5075212;28;20482;-87
2022/10/29 11:03:30;;;;;;;9.33;7.90;;;20.00;66.00;;;;;;5065661;27;20457;-88
2022/10/29 11:06:02;;;;;;;16.93;10.50;;;19.90;66.00;;;;;;5093660;28;20508;-89
2022/10/29 11:08:37;;;;;;;10.10;8.27;;;19.90;66.20;;;;;;5095087;27;20450;-89
2022/10/29 11:11:10;;;;;;;10.63;8.43;;;19.90;66.10;;;;;;5070603;28;20439;-89
2022/10/29 11:13:40;;;;;;;11.53;8.80;;;20.20;65.80;;;;;;5089149;28;21031;-89
2022/10/29 11:16:16;;;;;;;12.00;8.97;;;20.40;65.40;;;;;;5092184;28;20998;-89
2022/10/29 11:18:48;;;;;;;13.17;10.00;;;20.60;65.10;;;;;;5065296;28;20538;-90
2022/10/29 11:21:20;;;;;;;13.77;9.17;;;20.70;64.70;;;;;;5066342;28;20487;-88
2022/10/29 11:23:56;;;;;;;10.90;7.87;;;20.80;64.10;;;;;;5074362;27;20440;-88
2022/10/29 11:26:32;;;;;;;10.47;8.60;;;20.80;64.30;;;;;;5077546;28;20535;-89
2022/10/29 11:29:04;;;;;;;11.70;8.03;;;20.90;64.30;;;;;;5075609;28;20445;-89
2022/10/29 11:31:39;;;;;;;14.30;8.97;;;21.00;64.30;;;;;;5056317;28;20447;-89
2022/10/29 11:34:15;;;;;;;11.77;7.90;;;21.10;64.00;;;;;;5088454;28;20532;-89
2022/10/29 11:36:46;;;;;;;10.43;9.03;;;21.10;63.70;;;;;;5057370;28;20470;-88
2022/10/29 11:39:20;;;;;;;9.23;7.10;;;21.30;64.20;;;;;;5091948;28;20435;-89
2022/10/29 11:41:55;;;;;;;15.70;7.30;;;21.60;64.10;;;;;;5067111;28;20554;-88
2022/10/29 11:44:21;;;;;;;10.40;6.40;;;21.80;64.30;;;;;;5078947;27;20844;-88
2022/10/29 11:47:01;;;;;;;12.63;7.33;;;21.90;62.70;;;;;;5064863;28;20505;-89
2022/10/29 11:49:47;;;;;;;11.60;6.80;;;21.80;62.60;;;;;;5085451;28;20445;-89
2022/10/29 11:52:19;;;;;;;13.33;7.03;;;21.90;62.40;;;;;;5096400;27;20467;-88
2022/10/29 11:54:57;;;;;;;9.80;7.57;;;22.00;62.20;;;;;;5078821;28;20443;-88
2022/10/29 11:57:33;;;;;;;11.00;8.37;;;22.10;62.30;;;;;;5077552;28;20476;-89
2022/10/29 12:00:11;;;;;;;8.80;7.90;;;22.30;62.70;;;;;;5065736;28;20449;-88
2022/10/29 12:02:56;;;;;;;18.50;8.23;;;22.40;63.40;;;;;;5074674;27;20464;-88
2022/10/29 12:05:30;;;;;;;12.00;8.40;;;22.80;63.60;;;;;;5078084;28;20471;-89
2022/10/29 12:08:17;;;;;;;15.40;8.10;;;23.10;61.80;;;;;;5097610;27;20565;-89
2022/10/29 12:10:50;;;;;;;12.77;8.20;;;23.40;60.50;;;;;;5079149;28;20577;-89
2022/10/29 12:13:46;;;;;;;20.20;8.90;;;23.60;60.70;;;;;;5077873;28;20905;-88
2022/10/29 12:16:23;;;;;;;17.60;8.53;;;23.60;58.70;;;;;;5069657;28;20520;-89
2022/10/29 12:18:56;;;;;;;21.17;9.60;;;23.70;61.20;;;;;;5077492;27;20534;-89
2022/10/29 12:21:35;;;;;;;15.27;8.13;;;23.80;58.60;;;;;;5094524;27;20474;-89
2022/10/29 12:24:25;;;;;;;16.20;8.73;;;24.00;59.70;;;;;;5067932;28;20536;-89
2022/10/29 12:27:00;;;;;;;16.70;9.10;;;24.10;58.70;;;;;;5062764;27;20470;-88
2022/10/29 12:29:36;;;;;;;13.43;9.07;;;24.10;58.40;;;;;;5077887;27;21210;-89
2022/10/29 12:32:08;;;;;;;14.43;8.63;;;24.20;58.60;;;;;;5062113;27;20484;-88
2022/10/29 12:34:43;;;;;;;14.70;9.60;;;24.20;58.50;;;;;;5066803;27;20541;-89
2022/10/29 12:37:16;;;;;;;16.67;8.80;;;24.30;58.00;;;;;;5061116;28;20551;-88
2022/10/29 12:39:48;;;;;;;17.70;8.73;;;24.20;57.90;;;;;;5083878;28;20566;-88
2022/10/29 12:42:19;;;;;;;15.73;9.67;;;24.40;58.70;;;;;;5064237;28;20483;-89
2022/10/29 12:45:00;;;;;;;16.40;10.10;;;24.40;57.50;;;;;;5034162;28;20468;-89
2022/10/29 12:47:34;;;;;;;18.27;8.83;;;24.60;58.70;;;;;;5067066;28;20466;-88
2022/10/29 12:50:18;;;;;;;13.10;8.40;;;24.80;58.70;;;;;;5096170;27;20440;-90
2022/10/29 12:52:49;;;;;;;16.47;8.03;;;25.00;58.20;;;;;;5095653;27;20441;-89
2022/10/29 12:55:17;;;;;;;11.37;8.53;;;25.10;57.30;;;;;;5095579;27;20501;-89